Time;durP1;ratioP1;P1;durP2;ratioP2;P2;SDS_P1;SDS_P2;PMS_P1;PMS_P2;Temp;Humidity;BMP_temperature;BMP_pressure;BME280_temperature;BME280_humidity;BME280_pressure;Samples;Min_cycle;Max_cycle;Signal;HPM_P1;HPM_P2
2022/10/21 00:00:34;;;;;;;7.25;3.83;;;;;;;;;;4986194;28;20058;-75
2022/10/21 00:03:05;;;;;;;10.70;5.00;;;;;;;;;;4990167;28;20113;-73
2022/10/21 00:05:34;;;;;;;8.98;3.95;;;;;;;;;;4990330;28;20053;-74
2022/10/21 00:08:05;;;;;;;6.78;3.78;;;;;;;;;;4989849;28;20413;-74
2022/10/21 00:10:34;;;;;;;9.05;3.50;;;;;;;;;;4988625;28;20054;-74
2022/10/21 00:13:05;;;;;;;5.57;3.28;;;;;;;;;;4987806;28;20488;-75
2022/10/21 00:15:37;;;;;;;8.95;3.50;;;;;;;;;;4988473;28;20046;-75
2022/10/21 00:18:07;;;;;;;6.13;3.63;;;;;;;;;;4989677;28;20123;-74
2022/10/21 00:20:40;;;;;;;8.18;3.33;;;;;;;;;;4989659;28;20398;-74
2022/10/21 00:23:10;;;;;;;5.75;3.45;;;;;;;;;;4989540;28;20535;-75
2022/10/21 00:25:40;;;;;;;7.13;3.88;;;;;;;;;;4990192;28;20053;-72
2022/10/21 00:28:10;;;;;;;7.07;3.15;;;;;;;;;;4988817;28;20514;-73
2022/10/21 00:30:45;;;;;;;7.13;3.42;;;;;;;;;;4989262;28;20433;-72
2022/10/21 00:33:15;;;;;;;6.47;3.78;;;;;;;;;;4988715;28;20101;-74
2022/10/21 00:35:57;;;;;;;9.45;3.42;;;;;;;;;;4989044;28;20050;-75
2022/10/21 00:38:28;;;;;;;5.60;2.70;;;;;;;;;;4989342;28;20528;-73
2022/10/21 00:40:59;;;;;;;5.82;3.03;;;;;;;;;;5008553;28;20049;-74
2022/10/21 00:43:30;;;;;;;6.35;3.17;;;;;;;;;;5009121;28;20413;-74
2022/10/21 00:46:06;;;;;;;6.68;3.28;;;;;;;;;;5009267;28;20053;-75
2022/10/21 00:48:41;;;;;;;6.85;3.15;;;;;;;;;;5008734;28;20054;-74
2022/10/21 00:51:17;;;;;;;5.57;2.67;;;;;;;;;;5008658;28;20049;-74
2022/10/21 00:53:49;;;;;;;6.20;2.50;;;;;;;;;;5008934;28;20041;-73
2022/10/21 00:56:26;;;;;;;6.03;2.88;;;;;;;;;;5008693;28;20046;-74
2022/10/21 00:58:59;;;;;;;3.78;2.35;;;;;;;;;;5007902;28;20046;-74
2022/10/21 01:01:29;;;;;;;4.43;2.38;;;;;;;;;;5007916;28;20072;-75
2022/10/21 01:04:02;;;;;;;5.90;3.15;;;;;;;;;;5008222;28;20139;-74
2022/10/21 01:06:34;;;;;;;5.88;2.47;;;;;;;;;;5006983;28;20076;-74
2022/10/21 01:09:05;;;;;;;6.10;2.80;;;;;;;;;;5007288;28;20049;-73
2022/10/21 01:11:45;;;;;;;7.05;3.03;;;;;;;;;;5008307;28;20045;-73
2022/10/21 01:14:36;;;;;;;4.40;2.25;;;;;;;;;;5008595;28;20045;-75
2022/10/21 01:17:09;;;;;;;6.63;2.80;;;;;;;;;;5008638;28;20057;-74
2022/10/21 01:20:21;;;;;;;7.03;3.55;;;;;;;;;;5007751;28;20145;-77
2022/10/21 01:23:03;;;;;;;6.13;3.25;;;;;;;;;;5008013;28;20477;-75
2022/10/21 01:25:56;;;;;;;8.63;3.40;;;;;;;;;;5008530;28;20049;-74
2022/10/21 01:29:31;;;;;;;8.40;3.70;;;;;;;;;;4996458;28;20420;-75
2022/10/21 01:32:28;;;;;;;6.93;3.15;;;;;;;;;;4966895;28;20182;-75
2022/10/21 01:35:04;;;;;;;8.13;4.15;;;;;;;;;;5008268;28;20046;-74
2022/10/21 01:37:49;;;;;;;7.80;3.95;;;;;;;;;;5007768;28;20050;-73
2022/10/21 01:41:00;;;;;;;21.05;7.53;;;;;;;;;;5008333;28;20058;-75
2022/10/21 01:43:46;;;;;;;10.23;4.55;;;;;;;;;;5007370;28;20054;-75
2022/10/21 01:46:22;;;;;;;9.45;4.82;;;;;;;;;;5007994;28;20519;-74
2022/10/21 01:49:08;;;;;;;9.13;5.22;;;;;;;;;;5008536;28;20437;-74
2022/10/21 01:51:39;;;;;;;9.93;5.05;;;;;;;;;;5006917;28;20049;-74
2022/10/21 01:54:31;;;;;;;12.00;5.38;;;;;;;;;;5007806;28;20097;-77
2022/10/21 01:57:03;;;;;;;8.63;5.00;;;;;;;;;;5007757;28;20052;-74
2022/10/21 01:59:35;;;;;;;11.73;5.53;;;;;;;;;;5007797;28;20053;-75
2022/10/21 02:02:07;;;;;;;13.30;5.57;;;;;;;;;;5007092;28;20058;-74
2022/10/21 02:04:40;;;;;;;9.80;5.35;;;;;;;;;;5008271;28;20093;-74
2022/10/21 02:07:10;;;;;;;13.75;5.30;;;;;;;;;;4990816;28;20045;-74
2022/10/21 02:09:40;;;;;;;10.18;5.55;;;;;;;;;;5008056;28;20049;-73
2022/10/21 02:12:10;;;;;;;10.02;5.00;;;;;;;;;;5007313;28;20053;-73
2022/10/21 02:14:46;;;;;;;10.43;5.68;;;;;;;;;;5007150;28;20052;-74
2022/10/21 02:17:20;;;;;;;11.15;5.40;;;;;;;;;;5007648;28;20050;-73
2022/10/21 02:19:50;;;;;;;11.63;5.32;;;;;;;;;;4989737;28;20057;-75
2022/10/21 02:22:22;;;;;;;10.77;5.40;;;;;;;;;;5007175;28;20046;-73
2022/10/21 02:24:59;;;;;;;11.05;4.90;;;;;;;;;;5006469;28;20408;-73
2022/10/21 02:27:30;;;;;;;11.80;5.53;;;;;;;;;;5007563;28;20057;-75
2022/10/21 02:30:00;;;;;;;14.23;6.03;;;;;;;;;;5007007;28;20053;-74
2022/10/21 02:32:55;;;;;;;11.35;5.07;;;;;;;;;;5006904;28;20049;-73
2022/10/21 02:35:25;;;;;;;9.82;4.03;;;;;;;;;;5007154;28;20046;-73
2022/10/21 02:38:10;;;;;;;20.15;6.03;;;;;;;;;;4989508;28;20057;-75
2022/10/21 02:41:13;;;;;;;11.25;4.93;;;;;;;;;;5005952;28;20062;-74
2022/10/21 02:44:00;;;;;;;10.63;5.53;;;;;;;;;;5006776;28;20716;-75
2022/10/21 02:46:40;;;;;;;9.90;5.15;;;;;;;;;;5007018;28;20693;-74
2022/10/21 02:49:10;;;;;;;11.82;5.18;;;;;;;;;;4989731;28;20057;-73
2022/10/21 02:51:42;;;;;;;8.75;4.63;;;;;;;;;;5006906;28;20053;-75
2022/10/21 02:54:12;;;;;;;11.75;5.15;;;;;;;;;;5006647;28;20046;-75
2022/10/21 02:56:42;;;;;;;9.88;5.07;;;;;;;;;;5007054;28;20053;-73
2022/10/21 02:59:12;;;;;;;14.38;4.88;;;;;;;;;;4989493;28;20050;-76
2022/10/21 03:01:43;;;;;;;8.05;4.20;;;;;;;;;;5006681;28;20042;-75
2022/10/21 03:04:13;;;;;;;11.55;4.68;;;;;;;;;;5006696;28;20053;-74
2022/10/21 03:06:42;;;;;;;11.65;5.70;;;;;;;;;;5006607;28;20532;-74
2022/10/21 03:09:12;;;;;;;13.18;5.35;;;;;;;;;;5006783;28;20042;-73
2022/10/21 03:11:42;;;;;;;11.52;5.72;;;;;;;;;;5006197;28;20053;-75
2022/10/21 03:14:11;;;;;;;14.63;5.47;;;;;;;;;;5006316;28;20489;-73
2022/10/21 03:16:42;;;;;;;15.45;4.75;;;;;;;;;;5006636;28;20050;-74
2022/10/21 03:19:12;;;;;;;10.82;4.93;;;;;;;;;;5006407;28;20057;-75
2022/10/21 03:21:42;;;;;;;11.90;4.85;;;;;;;;;;4989422;28;20054;-73
2022/10/21 03:24:12;;;;;;;11.13;4.68;;;;;;;;;;5007002;28;20477;-74
2022/10/21 03:26:56;;;;;;;12.35;5.30;;;;;;;;;;5006806;28;21168;-74
2022/10/21 03:29:25;;;;;;;10.38;5.50;;;;;;;;;;5006056;28;20056;-75
2022/10/21 03:31:55;;;;;;;13.88;6.20;;;;;;;;;;5006173;28;20057;-75
2022/10/21 03:34:25;;;;;;;10.75;5.20;;;;;;;;;;5005801;28;20076;-74
2022/10/21 03:36:55;;;;;;;8.05;4.47;;;;;;;;;;5010372;28;20053;-74
2022/10/21 03:39:24;;;;;;;9.07;5.30;;;;;;;;;;5009819;28;20064;-74
2022/10/21 03:41:54;;;;;;;9.80;5.43;;;;;;;;;;5010066;28;20049;-73
2022/10/21 03:44:24;;;;;;;12.05;5.65;;;;;;;;;;5009751;28;20073;-74
2022/10/21 03:46:54;;;;;;;10.18;4.60;;;;;;;;;;5010216;28;20054;-74
2022/10/21 03:49:23;;;;;;;12.75;5.40;;;;;;;;;;5009529;28;20564;-74
2022/10/21 03:51:53;;;;;;;13.48;5.38;;;;;;;;;;4992511;28;20062;-73
2022/10/21 03:54:23;;;;;;;11.48;5.13;;;;;;;;;;5010227;28;20062;-75
2022/10/21 03:56:53;;;;;;;10.05;5.40;;;;;;;;;;5009751;28;20049;-74
2022/10/21 03:59:23;;;;;;;9.27;4.85;;;;;;;;;;5010196;28;20057;-74
2022/10/21 04:01:52;;;;;;;7.85;4.43;;;;;;;;;;4992178;28;20069;-74
2022/10/21 04:04:22;;;;;;;10.77;5.50;;;;;;;;;;5009897;28;20050;-75
2022/10/21 04:06:53;;;;;;;8.23;4.63;;;;;;;;;;5009707;28;20055;-75
2022/10/21 04:09:23;;;;;;;13.02;5.30;;;;;;;;;;5009745;28;20049;-73
2022/10/21 04:11:52;;;;;;;8.70;4.88;;;;;;;;;;5009772;28;20050;-73
2022/10/21 04:14:22;;;;;;;8.48;4.70;;;;;;;;;;5009889;28;20050;-73
2022/10/21 04:16:52;;;;;;;12.15;6.70;;;;;;;;;;5009492;28;20065;-73
2022/10/21 04:19:34;;;;;;;15.02;7.10;;;;;;;;;;5009653;28;20054;-73
2022/10/21 04:22:04;;;;;;;12.05;7.55;;;;;;;;;;5009019;28;20061;-73
2022/10/21 04:24:34;;;;;;;17.25;8.25;;;;;;;;;;5009238;28;20509;-73
2022/10/21 04:27:04;;;;;;;13.30;7.68;;;;;;;;;;5009535;28;20050;-76
2022/10/21 04:29:33;;;;;;;15.80;8.88;;;;;;;;;;5009051;28;20535;-74
2022/10/21 04:32:03;;;;;;;16.08;8.68;;;;;;;;;;5009190;28;20065;-76
2022/10/21 04:34:33;;;;;;;17.67;8.32;;;;;;;;;;5008964;28;20053;-75
2022/10/21 04:37:03;;;;;;;16.25;8.30;;;;;;;;;;5009375;28;20058;-74
2022/10/21 04:39:33;;;;;;;18.67;9.95;;;;;;;;;;5009438;28;20050;-74
2022/10/21 04:42:03;;;;;;;22.52;9.77;;;;;;;;;;5009498;28;20393;-75
2022/10/21 04:44:33;;;;;;;18.88;9.13;;;;;;;;;;4992001;28;20096;-76
2022/10/21 04:47:02;;;;;;;27.02;10.60;;;;;;;;;;5008369;28;20060;-75
2022/10/21 04:49:32;;;;;;;19.85;9.77;;;;;;;;;;4991253;28;20045;-76
2022/10/21 04:52:02;;;;;;;21.60;10.65;;;;;;;;;;5009122;28;20046;-74
2022/10/21 04:54:32;;;;;;;23.15;10.70;;;;;;;;;;5009370;28;20045;-74
2022/10/21 04:57:02;;;;;;;24.15;10.77;;;;;;;;;;5008372;28;20038;-74
2022/10/21 04:59:32;;;;;;;25.60;10.40;;;;;;;;;;5009026;28;20401;-73
2022/10/21 05:02:02;;;;;;;26.88;10.98;;;;;;;;;;5009181;28;20429;-73
2022/10/21 05:04:31;;;;;;;23.65;11.43;;;;;;;;;;4991640;28;20048;-74
2022/10/21 05:07:01;;;;;;;21.10;9.02;;;;;;;;;;5009020;28;20046;-75
2022/10/21 05:09:31;;;;;;;25.05;8.75;;;;;;;;;;4991089;28;20057;-75
2022/10/21 05:12:01;;;;;;;17.20;8.05;;;;;;;;;;5008607;28;20054;-76
2022/10/21 05:14:30;;;;;;;18.73;8.90;;;;;;;;;;5008655;28;20062;-76
2022/10/21 05:17:00;;;;;;;24.05;8.93;;;;;;;;;;5008425;28;20052;-74
2022/10/21 05:19:31;;;;;;;23.20;7.28;;;;;;;;;;5008584;28;20050;-75
2022/10/21 05:22:01;;;;;;;20.50;8.70;;;;;;;;;;5008733;28;20053;-74
2022/10/21 05:24:30;;;;;;;20.85;9.13;;;;;;;;;;5007430;28;20053;-75
2022/10/21 05:27:00;;;;;;;20.67;9.65;;;;;;;;;;5008372;28;20042;-74
2022/10/21 05:29:30;;;;;;;23.48;10.98;;;;;;;;;;5008552;28;20064;-74
2022/10/21 05:32:00;;;;;;;21.15;10.38;;;;;;;;;;5007483;28;20045;-76
2022/10/21 05:34:29;;;;;;;25.77;10.32;;;;;;;;;;5007722;28;20425;-75
2022/10/21 05:36:59;;;;;;;25.50;10.95;;;;;;;;;;5007154;28;20065;-75
2022/10/21 05:39:29;;;;;;;29.15;11.05;;;;;;;;;;5007849;28;20517;-74
2022/10/21 05:41:59;;;;;;;26.40;11.40;;;;;;;;;;5007446;28;20057;-74
2022/10/21 05:44:28;;;;;;;26.67;10.65;;;;;;;;;;5008241;28;20050;-74
2022/10/21 05:46:58;;;;;;;29.48;10.95;;;;;;;;;;5007158;28;20492;-74
2022/10/21 05:49:29;;;;;;;25.38;10.90;;;;;;;;;;5007824;28;20045;-74
2022/10/21 05:51:58;;;;;;;27.60;10.85;;;;;;;;;;4974966;28;20053;-73
2022/10/21 05:54:29;;;;;;;33.75;11.82;;;;;;;;;;5007898;28;20049;-74
2022/10/21 05:56:58;;;;;;;28.38;12.45;;;;;;;;;;5007438;28;20497;-74
2022/10/21 05:59:28;;;;;;;31.35;11.43;;;;;;;;;;4989972;28;20053;-74
2022/10/21 06:01:58;;;;;;;26.73;10.60;;;;;;;;;;5007140;28;20060;-75
2022/10/21 06:04:27;;;;;;;28.50;11.65;;;;;;;;;;5007592;28;20497;-74
2022/10/21 06:07:01;;;;;;;30.50;13.82;;;;;;;;;;5007659;28;20053;-75
2022/10/21 06:09:31;;;;;;;32.88;11.98;;;;;;;;;;5006917;28;20049;-74
2022/10/21 06:12:01;;;;;;;29.80;11.48;;;;;;;;;;5007293;28;20421;-74
2022/10/21 06:14:31;;;;;;;31.83;12.35;;;;;;;;;;5005375;28;20042;-75
2022/10/21 06:17:03;;;;;;;31.40;12.02;;;;;;;;;;5007552;28;20049;-76
2022/10/21 06:19:32;;;;;;;25.70;11.52;;;;;;;;;;5007800;28;20053;-75
2022/10/21 06:22:02;;;;;;;30.63;11.40;;;;;;;;;;5006748;28;20061;-75
2022/10/21 06:24:32;;;;;;;26.23;11.07;;;;;;;;;;5007250;28;20041;-74
2022/10/21 06:27:02;;;;;;;30.88;12.32;;;;;;;;;;5006510;28;20042;-74
2022/10/21 06:29:32;;;;;;;29.00;13.05;;;;;;;;;;5006780;28;20049;-74
2022/10/21 06:32:01;;;;;;;36.10;12.02;;;;;;;;;;5006306;28;20046;-75
2022/10/21 06:34:31;;;;;;;28.98;12.48;;;;;;;;;;5006191;28;20054;-75
2022/10/21 06:37:01;;;;;;;26.90;11.35;;;;;;;;;;5006881;28;20048;-75
2022/10/21 06:39:31;;;;;;;29.73;12.00;;;;;;;;;;5006344;28;20046;-75
2022/10/21 06:42:00;;;;;;;33.83;13.32;;;;;;;;;;5007131;28;20051;-75
2022/10/21 06:44:48;;;;;;;28.77;13.23;;;;;;;;;;5007400;28;20060;-75
2022/10/21 06:47:18;;;;;;;30.98;12.82;;;;;;;;;;5006572;28;20934;-76
2022/10/21 06:49:47;;;;;;;32.80;11.93;;;;;;;;;;5006704;28;20053;-76
2022/10/21 06:52:18;;;;;;;29.85;13.13;;;;;;;;;;4989177;28;20064;-75
2022/10/21 06:54:47;;;;;;;32.08;13.02;;;;;;;;;;5006927;28;20046;-75
2022/10/21 06:57:18;;;;;;;31.60;12.98;;;;;;;;;;5006573;28;20045;-75
2022/10/21 06:59:49;;;;;;;33.70;12.77;;;;;;;;;;5006899;28;20046;-75
2022/10/21 07:02:20;;;;;;;28.85;12.30;;;;;;;;;;5006303;28;20539;-75
2022/10/21 07:04:51;;;;;;;38.15;13.38;;;;;;;;;;5006676;28;20375;-76
2022/10/21 07:07:21;;;;;;;30.55;13.20;;;;;;;;;;5007126;28;20049;-75
2022/10/21 07:09:51;;;;;;;28.20;13.48;;;;;;;;;;5006556;28;20054;-74
2022/10/21 07:12:20;;;;;;;31.15;13.48;;;;;;;;;;5006731;28;20049;-73
2022/10/21 07:14:50;;;;;;;41.78;14.88;;;;;;;;;;5006337;28;20050;-74
2022/10/21 07:17:21;;;;;;;39.60;13.75;;;;;;;;;;5006371;28;20057;-75
2022/10/21 07:19:50;;;;;;;35.53;12.80;;;;;;;;;;4989051;28;20054;-75
2022/10/21 07:22:20;;;;;;;37.95;13.77;;;;;;;;;;5005936;28;20053;-76
2022/10/21 07:24:50;;;;;;;33.25;12.50;;;;;;;;;;5006197;28;20057;-74
2022/10/21 07:27:20;;;;;;;43.80;14.15;;;;;;;;;;5006208;28;20054;-75
2022/10/21 07:29:50;;;;;;;44.15;15.40;;;;;;;;;;5007192;28;20049;-75
2022/10/21 07:32:20;;;;;;;37.80;13.80;;;;;;;;;;5006711;28;20413;-74
2022/10/21 07:34:50;;;;;;;37.47;14.70;;;;;;;;;;5006645;28;20041;-74
2022/10/21 07:37:20;;;;;;;40.97;14.25;;;;;;;;;;5006728;28;20069;-75
2022/10/21 07:39:49;;;;;;;38.28;14.80;;;;;;;;;;5005948;28;20378;-74
2022/10/21 07:42:20;;;;;;;44.05;15.40;;;;;;;;;;5006526;28;20064;-74
2022/10/21 07:44:56;;;;;;;42.15;15.75;;;;;;;;;;5006578;28;20042;-74
2022/10/21 07:47:26;;;;;;;42.35;15.88;;;;;;;;;;5006677;28;20053;-74
2022/10/21 07:49:56;;;;;;;42.17;14.93;;;;;;;;;;5006349;28;20058;-74
2022/10/21 07:52:27;;;;;;;38.47;16.60;;;;;;;;;;5006381;28;20069;-74
2022/10/21 07:55:01;;;;;;;40.42;15.23;;;;;;;;;;5006088;28;20041;-76
2022/10/21 07:57:31;;;;;;;37.80;15.80;;;;;;;;;;5006370;28;20049;-74
2022/10/21 08:00:00;;;;;;;38.88;15.65;;;;;;;;;;5007016;28;20042;-75
2022/10/21 08:02:40;;;;;;;39.22;15.27;;;;;;;;;;5006471;28;20065;-75
2022/10/21 08:05:11;;;;;;;39.90;16.35;;;;;;;;;;4988803;28;20042;-75
2022/10/21 08:07:42;;;;;;;34.85;16.70;;;;;;;;;;5005597;28;20053;-75
2022/10/21 08:10:12;;;;;;;35.47;13.80;;;;;;;;;;5006356;28;20057;-74
2022/10/21 08:12:41;;;;;;;34.97;14.38;;;;;;;;;;5006138;28;20061;-75
2022/10/21 08:15:12;;;;;;;33.85;14.85;;;;;;;;;;4988014;28;20061;-74
2022/10/21 08:17:41;;;;;;;38.03;15.85;;;;;;;;;;5005744;28;20054;-75
2022/10/21 08:20:11;;;;;;;38.08;16.75;;;;;;;;;;5006356;28;20049;-74
2022/10/21 08:22:41;;;;;;;41.33;16.38;;;;;;;;;;5007851;28;20054;-74
2022/10/21 08:25:15;;;;;;;35.38;15.80;;;;;;;;;;5009793;28;20057;-74
2022/10/21 08:27:45;;;;;;;38.53;15.80;;;;;;;;;;5009648;28;20072;-74
2022/10/21 08:30:16;;;;;;;36.08;14.80;;;;;;;;;;5010134;28;20061;-74
2022/10/21 08:32:46;;;;;;;39.15;15.15;;;;;;;;;;5009638;28;20050;-74
2022/10/21 08:35:16;;;;;;;35.15;13.32;;;;;;;;;;5009863;28;20396;-76
2022/10/21 08:37:48;;;;;;;32.10;14.90;;;;;;;;;;5009314;28;20046;-73
2022/10/21 08:40:20;;;;;;;28.50;12.70;;;;;;;;;;5009186;28;20050;-74
2022/10/21 08:42:51;;;;;;;30.55;12.40;;;;;;;;;;4991781;28;20424;-75
2022/10/21 08:45:37;;;;;;;32.72;12.48;;;;;;;;;;5009157;28;20052;-73
2022/10/21 08:48:14;;;;;;;33.28;12.00;;;;;;;;;;5009689;28;20054;-75
2022/10/21 08:50:49;;;;;;;25.40;11.77;;;;;;;;;;5008740;28;20512;-75
2022/10/21 08:53:46;;;;;;;23.75;10.93;;;;;;;;;;5008873;28;20046;-74
2022/10/21 08:56:17;;;;;;;22.88;10.68;;;;;;;;;;5008489;28;20567;-73
2022/10/21 08:58:50;;;;;;;29.25;10.25;;;;;;;;;;5008274;28;20053;-75
2022/10/21 09:01:45;;;;;;;19.48;9.48;;;;;;;;;;5008922;28;20057;-75
2022/10/21 09:04:42;;;;;;;19.15;9.15;;;;;;;;;;5008575;28;20057;-74
2022/10/21 09:07:13;;;;;;;24.05;10.73;;;;;;;;;;5008220;28;20045;-74
2022/10/21 09:09:47;;;;;;;20.38;9.20;;;;;;;;;;5007288;28;20046;-73
2022/10/21 09:12:38;;;;;;;18.23;9.30;;;;;;;;;;5008993;28;20405;-74
2022/10/21 09:15:30;;;;;;;14.70;8.15;;;;;;;;;;5008836;28;20034;-74
2022/10/21 09:18:30;;;;;;;20.00;8.43;;;;;;;;;;5008452;28;20060;-74
2022/10/21 09:21:09;;;;;;;13.45;7.28;;;;;;;;;;5008516;28;20522;-74
2022/10/21 09:23:58;;;;;;;19.70;8.50;;;;;;;;;;5008220;28;20496;-75
2022/10/21 09:26:40;;;;;;;21.83;7.72;;;;;;;;;;5008360;28;20092;-75
2022/10/21 09:29:26;;;;;;;19.17;8.40;;;;;;;;;;5008385;28;20057;-74
2022/10/21 09:32:20;;;;;;;12.73;7.45;;;;;;;;;;5008203;28;20046;-74
2022/10/21 09:35:08;;;;;;;12.80;6.80;;;;;;;;;;5007950;28;20041;-74
2022/10/21 09:38:27;;;;;;;10.73;7.05;;;;;;;;;;5008147;28;20057;-74
2022/10/21 09:41:02;;;;;;;15.23;7.72;;;;;;;;;;4946389;29;20427;-75
2022/10/21 09:43:32;;;;;;;13.50;6.85;;;;;;;;;;5000974;28;20062;-74
2022/10/21 09:46:03;;;;;;;13.45;7.60;;;;;;;;;;5008010;28;20053;-74
2022/10/21 09:48:51;;;;;;;14.75;6.72;;;;;;;;;;4990581;28;20513;-74
2022/10/21 09:51:44;;;;;;;12.80;6.32;;;;;;;;;;5008014;28;20417;-75
2022/10/21 09:54:21;;;;;;;13.25;6.32;;;;;;;;;;5007345;28;20042;-76
2022/10/21 09:57:09;;;;;;;10.30;5.72;;;;;;;;;;5007801;28;20519;-74
2022/10/21 10:00:06;;;;;;;15.32;7.53;;;;;;;;;;5008223;28;20420;-74
2022/10/21 10:02:45;;;;;;;14.80;8.48;;;;;;;;;;5008707;28;20050;-74
2022/10/21 10:05:37;;;;;;;14.90;8.95;;;;;;;;;;5005766;28;20050;-73
2022/10/21 10:08:32;;;;;;;10.68;6.80;;;;;;;;;;5007743;28;20417;-73
2022/10/21 10:11:04;;;;;;;13.15;5.72;;;;;;;;;;5007086;28;20050;-76
2022/10/21 10:13:39;;;;;;;11.90;5.53;;;;;;;;;;4990065;28;20550;-76
2022/10/21 10:16:25;;;;;;;5.90;2.78;;;;;;;;;;5007368;28;20054;-74
2022/10/21 10:19:27;;;;;;;4.10;2.03;;;;;;;;;;5007290;28;20428;-73
2022/10/21 10:22:12;;;;;;;5.25;2.25;;;;;;;;;;5007355;28;20050;-74
2022/10/21 10:24:44;;;;;;;3.70;1.95;;;;;;;;;;5007498;28;20052;-75
2022/10/21 10:27:19;;;;;;;5.85;2.17;;;;;;;;;;4989944;28;20046;-76
2022/10/21 10:29:52;;;;;;;;;;;;;;;;;;5007783;28;20400;-75
2022/10/21 10:32:30;;;;;;;5.63;2.60;;;;;;;;;;5007457;28;19922;-75
2022/10/21 10:35:04;;;;;;;6.32;1.77;;;;;;;;;;5007220;28;20049;-76
2022/10/21 10:37:36;;;;;;;5.50;2.47;;;;;;;;;;5007033;28;20057;-76
2022/10/21 10:40:09;;;;;;;6.32;1.80;;;;;;;;;;5006735;28;20401;-74
2022/10/21 10:42:45;;;;;;;2.10;1.50;;;;;;;;;;5005337;28;20054;-74
2022/10/21 10:45:19;;;;;;;4.68;1.98;;;;;;;;;;5006349;28;20042;-75
2022/10/21 10:47:56;;;;;;;2.08;0.93;;;;;;;;;;5007182;28;20045;-76
2022/10/21 10:50:48;;;;;;;4.68;1.63;;;;;;;;;;5007203;28;20038;-75
2022/10/21 10:53:35;;;;;;;5.15;0.90;;;;;;;;;;5007602;28;20045;-73
2022/10/21 10:56:17;;;;;;;2.85;1.08;;;;;;;;;;4989217;28;20049;-74
2022/10/21 10:58:56;;;;;;;7.88;1.73;;;;;;;;;;5006639;28;20053;-74
2022/10/21 11:01:32;;;;;;;2.47;1.20;;;;;;;;;;5005636;28;20061;-76
2022/10/21 11:04:28;;;;;;;6.50;1.40;;;;;;;;;;5006521;28;20045;-74
2022/10/21 11:07:08;;;;;;;3.97;1.73;;;;;;;;;;4986179;28;20073;-73
2022/10/21 11:09:38;;;;;;;2.10;1.35;;;;;;;;;;5006363;28;20056;-74
2022/10/21 11:12:23;;;;;;;6.28;0.68;;;;;;;;;;5006469;28;20053;-73
2022/10/21 11:14:56;;;;;;;3.28;1.10;;;;;;;;;;5006356;28;20050;-74
2022/10/21 11:17:40;;;;;;;3.50;1.20;;;;;;;;;;5006783;28;20504;-73
2022/10/21 11:20:26;;;;;;;0.70;0.57;;;;;;;;;;5006595;28;20046;-74
2022/10/21 11:23:20;;;;;;;3.22;0.57;;;;;;;;;;5006684;28;20089;-74
2022/10/21 11:25:57;;;;;;;1.27;0.80;;;;;;;;;;5006048;28;20050;-74
2022/10/21 11:28:53;;;;;;;2.20;0.85;;;;;;;;;;5006263;28;20038;-76
2022/10/21 11:31:45;;;;;;;2.15;0.63;;;;;;;;;;4978843;28;20069;-74
2022/10/21 11:34:47;;;;;;;1.20;0.70;;;;;;;;;;5006001;28;20056;-74
2022/10/21 11:37:31;;;;;;;0.93;0.60;;;;;;;;;;5006090;28;20386;-73
2022/10/21 11:40:17;;;;;;;2.00;0.82;;;;;;;;;;5008960;28;20053;-74
2022/10/21 11:42:50;;;;;;;2.15;1.05;;;;;;;;;;5011246;28;20053;-74
2022/10/21 11:46:02;;;;;;;3.88;1.02;;;;;;;;;;5006274;28;20049;-73
2022/10/21 11:48:46;;;;;;;2.53;0.90;;;;;;;;;;4978998;28;20555;-75
2022/10/21 11:51:32;;;;;;;2.42;1.58;;;;;;;;;;5006534;28;20053;-74
2022/10/21 11:54:11;;;;;;;1.50;0.63;;;;;;;;;;5005603;28;20046;-74
2022/10/21 11:57:03;;;;;;;2.55;0.73;;;;;;;;;;5007722;28;20046;-74
2022/10/21 11:59:45;;;;;;;3.42;0.90;;;;;;;;;;5009997;28;20068;-74
2022/10/21 12:02:31;;;;;;;5.68;2.25;;;;;;;;;;4992000;28;20050;-74
2022/10/21 12:05:26;;;;;;;1.10;0.70;;;;;;;;;;4992295;28;20516;-74
2022/10/21 12:08:08;;;;;;;17.77;15.75;;;;;;;;;;5010324;28;20531;-73
2022/10/21 12:10:50;;;;;;;;;;;;;;;;;;5010851;28;20050;-74
2022/10/21 12:13:27;;;;;;;1.95;0.77;;;;;;;;;;5010014;28;19925;-74
2022/10/21 12:16:06;;;;;;;0.88;0.70;;;;;;;;;;5009533;28;20052;-78
2022/10/21 12:19:04;;;;;;;4.72;0.82;;;;;;;;;;5009224;28;20046;-73
2022/10/21 12:21:39;;;;;;;2.95;1.08;;;;;;;;;;4992056;28;20056;-73
2022/10/21 12:24:31;;;;;;;2.42;0.82;;;;;;;;;;5009746;28;20436;-73
2022/10/21 12:27:18;;;;;;;0.52;0.50;;;;;;;;;;5009727;28;20046;-72
2022/10/21 12:30:16;;;;;;;2.03;1.05;;;;;;;;;;5010774;28;20056;-74
2022/10/21 12:33:32;;;;;;;4.25;0.80;;;;;;;;;;5010500;28;20509;-73
2022/10/21 12:36:38;;;;;;;3.90;1.00;;;;;;;;;;5008402;28;20559;-74
2022/10/21 12:39:32;;;;;;;0.98;0.82;;;;;;;;;;5008129;28;20493;-74
2022/10/21 12:42:13;;;;;;;7.95;0.80;;;;;;;;;;5009370;28;20049;-77
2022/10/21 12:44:51;;;;;;;1.70;1.15;;;;;;;;;;5008157;28;20060;-74
2022/10/21 12:47:36;;;;;;;1.98;1.15;;;;;;;;;;5009058;28;20046;-73
2022/10/21 12:50:18;;;;;;;1.02;0.55;;;;;;;;;;5008900;28;20516;-74
2022/10/21 12:53:06;;;;;;;2.33;1.00;;;;;;;;;;5009163;28;20050;-72
2022/10/21 12:55:39;;;;;;;1.42;0.60;;;;;;;;;;5008517;28;20065;-75
2022/10/21 12:58:36;;;;;;;3.78;3.08;;;;;;;;;;5009118;28;20492;-73
2022/10/21 13:01:35;;;;;;;0.65;0.57;;;;;;;;;;5004292;28;20069;-75
2022/10/21 13:04:33;;;;;;;4.25;0.80;;;;;;;;;;5008990;28;20049;-73
2022/10/21 13:07:27;;;;;;;1.75;0.73;;;;;;;;;;5009000;28;20081;-74
2022/10/21 13:09:59;;;;;;;;;;;;;;;;;;5008924;28;20042;-78
2022/10/21 13:12:32;;;;;;;3.88;1.13;;;;;;;;;;4992105;28;20380;-74
2022/10/21 13:15:20;;;;;;;0.52;0.52;;;;;;;;;;5008456;28;20045;-73
2022/10/21 13:17:55;;;;;;;1.83;0.90;;;;;;;;;;5008023;28;20058;-73
2022/10/21 13:20:25;;;;;;;;;;;;;;;;;;5009226;28;20509;-75
2022/10/21 13:23:28;;;;;;;5.43;1.63;;;;;;;;;;5008048;28;19925;-75
2022/10/21 13:26:26;;;;;;;1.48;0.85;;;;;;;;;;5008816;28;20057;-73
2022/10/21 13:29:20;;;;;;;3.45;1.05;;;;;;;;;;5007003;28;20578;-73
2022/10/21 13:32:29;;;;;;;7.32;1.25;;;;;;;;;;5002577;28;20066;-74
2022/10/21 13:35:11;;;;;;;5.07;0.90;;;;;;;;;;5008137;28;20133;-73
2022/10/21 13:37:57;;;;;;;4.68;1.17;;;;;;;;;;5008507;28;20046;-74
2022/10/21 13:40:45;;;;;;;2.17;0.65;;;;;;;;;;5007945;28;20544;-73
2022/10/21 13:43:45;;;;;;;0.82;0.55;;;;;;;;;;5007980;28;20050;-74
2022/10/21 13:46:31;;;;;;;3.28;0.90;;;;;;;;;;5003208;28;20402;-76
2022/10/21 13:49:05;;;;;;;1.25;1.00;;;;;;;;;;5008278;28;20053;-74
2022/10/21 13:51:45;;;;;;;2.40;1.13;;;;;;;;;;5007346;28;20057;-73
2022/10/21 13:54:16;;;;;;;2.20;1.00;;;;;;;;;;5008081;28;20046;-77
2022/10/21 13:56:46;;;;;;;3.13;1.02;;;;;;;;;;5008148;28;20049;-73
2022/10/21 13:59:25;;;;;;;3.75;1.50;;;;;;;;;;5007633;28;20049;-73
2022/10/21 14:01:57;;;;;;;2.90;1.25;;;;;;;;;;5007534;28;20097;-74
2022/10/21 14:04:29;;;;;;;4.82;1.67;;;;;;;;;;5007729;28;20052;-73
2022/10/21 14:07:04;;;;;;;1.50;0.93;;;;;;;;;;5007306;28;20046;-75
2022/10/21 14:09:43;;;;;;;2.67;1.25;;;;;;;;;;5006852;28;20516;-75
2022/10/21 14:12:35;;;;;;;6.28;1.05;;;;;;;;;;5007404;28;20038;-75
2022/10/21 14:15:23;;;;;;;7.68;2.30;;;;;;;;;;5007781;28;20054;-73
2022/10/21 14:17:58;;;;;;;4.93;1.02;;;;;;;;;;5007359;28;20041;-73
2022/10/21 14:20:34;;;;;;;2.25;1.30;;;;;;;;;;5006609;28;20061;-76
2022/10/21 14:23:08;;;;;;;12.75;1.27;;;;;;;;;;5007370;28;20053;-74
2022/10/21 14:25:38;;;;;;;1.88;0.93;;;;;;;;;;5007018;28;20060;-74
2022/10/21 14:28:11;;;;;;;3.35;1.25;;;;;;;;;;5006882;28;20052;-75
2022/10/21 14:30:42;;;;;;;1.88;0.90;;;;;;;;;;5007939;28;20049;-74
2022/10/21 14:33:17;;;;;;;1.98;1.13;;;;;;;;;;5007403;28;20042;-75
2022/10/21 14:36:04;;;;;;;3.03;1.10;;;;;;;;;;5007162;28;20049;-80
2022/10/21 14:38:42;;;;;;;1.15;0.60;;;;;;;;;;5007187;28;20042;-73
2022/10/21 14:41:25;;;;;;;1.88;0.55;;;;;;;;;;5006973;28;20042;-74
2022/10/21 14:43:58;;;;;;;4.95;0.90;;;;;;;;;;5007314;28;20057;-73
2022/10/21 14:46:28;;;;;;;1.00;0.68;;;;;;;;;;5006581;28;20042;-76
2022/10/21 14:49:01;;;;;;;0.57;0.57;;;;;;;;;;5006765;28;20046;-75
2022/10/21 14:51:37;;;;;;;1.23;0.68;;;;;;;;;;5007055;28;20050;-76
2022/10/21 14:54:46;;;;;;;1.90;0.82;;;;;;;;;;5006606;28;20531;-74
2022/10/21 14:57:39;;;;;;;2.08;0.93;;;;;;;;;;5015843;28;20034;-73
2022/10/21 15:00:40;;;;;;;1.35;1.10;;;;;;;;;;5014896;28;20042;-74
2022/10/21 15:03:11;;;;;;;1.08;0.95;;;;;;;;;;5007176;28;20642;-74
2022/10/21 15:05:46;;;;;;;2.83;1.15;;;;;;;;;;5006469;28;20053;-76
2022/10/21 15:08:20;;;;;;;2.35;1.10;;;;;;;;;;5007081;28;20062;-74
2022/10/21 15:10:56;;;;;;;1.88;1.13;;;;;;;;;;5009606;28;20121;-75
2022/10/21 15:13:26;;;;;;;2.65;0.90;;;;;;;;;;5006351;28;20773;-73
2022/10/21 15:15:58;;;;;;;3.08;0.77;;;;;;;;;;5006193;28;20053;-74
2022/10/21 15:18:52;;;;;;;2.22;0.73;;;;;;;;;;5006681;28;20076;-76
2022/10/21 15:21:29;;;;;;;2.72;0.73;;;;;;;;;;5006340;28;20057;-73
2022/10/21 15:24:00;;;;;;;0.88;0.70;;;;;;;;;;5006536;28;20061;-78
2022/10/21 15:26:39;;;;;;;1.27;0.68;;;;;;;;;;5006255;28;20485;-74
2022/10/21 15:29:36;;;;;;;0.55;0.45;;;;;;;;;;5006707;28;20060;-73
2022/10/21 15:32:06;;;;;;;1.08;0.50;;;;;;;;;;5003728;28;20058;-73